Data for 11/09/2005

Time Sea-Level Adjusted Pressure Absolute Pressure Temperature Relative Humidity Dew Point   
(mb) (inHg) (mb) (inHg) (C) (F) (%) (C) (F)
00:05 1025 30.27 854 25.22 -6.3 20.6 81 -9 15.8
00:10 1025 30.27 854 25.22 -6.6 20.2 80 -9.4 15
00:15 1025 30.27 854 25.22 -7 19.5 83 -9.4 15.1
00:20 1025 30.27 854 25.22 -7.4 18.6 84 -9.7 14.6
00:25 1024 30.24 854 25.22 -8.2 17.3 87 -10 14
00:30 1024 30.24 854 25.22 -7.9 17.8 83 -10.2 13.6
00:35 1024 30.24 854 25.22 -7.4 18.6 81 -10.1 13.8
00:40 1024 30.24 854 25.22 -7.5 18.4 84 -9.8 14.3
00:45 1024 30.24 854 25.22 -7.6 18.4 83 -10 14
00:50 1024 30.24 854 25.22 -7.3 18.8 83 -9.8 14.4
00:55 1024 30.24 854 25.22 -7 19.4 81 -9.7 14.6
01:00 1024 30.24 854 25.22 -6.8 19.8 81 -9.6 14.8
01:05 1024 30.24 854 25.22 -6.5 20.3 78 -9.8 14.4
01:10 1024 30.24 854 25.22 -6.6 20.1 78 -9.8 14.4
01:15 1024 30.24 854 25.22 -7.2 19.1 81 -9.9 14.2
01:20 1024 30.24 854 25.22 -7.5 18.5 82 -10.1 13.9
01:25 1024 30.24 853 25.19 -7.3 18.9 82 -9.9 14.2
01:30 1024 30.24 853 25.19 -6.7 19.9 78 -9.9 14.1
01:35 1024 30.24 853 25.19 -6.3 20.7 76 -9.8 14.3
01:40 1024 30.24 853 25.19 -6.1 21 76 -9.7 14.5
01:45 1024 30.24 853 25.19 -5.9 21.3 74 -9.8 14.3
01:50 1024 30.24 854 25.22 -6.5 20.3 79 -9.6 14.7
01:55 1024 30.24 854 25.22 -7.1 19.2 78 -10.4 13.3
02:00 1024 30.24 854 25.22 -6.7 19.9 76 -10.2 13.6
02:05 1025 30.27 854 25.22 -7 19.4 77 -10.3 13.5
02:10 1024 30.24 854 25.22 -7.3 18.9 80 -10.2 13.6
02:15 1024 30.24 853 25.19 -7.4 18.8 80 -10.2 13.7
02:20 1024 30.24 853 25.19 -7.9 17.8 81 -10.5 13
02:25 1024 30.24 853 25.19 -7.8 17.9 80 -10.7 12.8
02:30 1024 30.24 853 25.19 -8 17.6 83 -10.4 13.2
02:35 1024 30.24 853 25.19 -7.8 17.9 81 -10.5 13
02:40 1024 30.24 853 25.19 -7.8 18 82 -10.4 13.3
02:45 1024 30.24 853 25.19 -7.6 18.2 80 -10.5 13
02:50 1024 30.24 853 25.19 -7.8 18 80 -10.6 12.9
02:55 1024 30.24 853 25.19 -7.5 18.5 79 -10.5 13.1
03:00 1024 30.24 853 25.19 -7.4 18.7 78 -10.6 13
03:05 1024 30.24 853 25.19 -7.2 19 79 -10.3 13.4
03:10 1024 30.24 853 25.19 -7.3 19 79 -10.2 13.6
03:15 1024 30.24 853 25.19 -7.5 18.5 81 -10.2 13.6
03:20 1024 30.24 853 25.19 -7.5 18.4 81 -10.3 13.4
03:25 1024 30.24 853 25.19 -7.1 19.2 79 -10.2 13.7
03:30 1024 30.24 853 25.19 -6.9 19.5 76 -10.4 13.2
03:35 1024 30.24 853 25.19 -6.4 20.4 73 -10.5 13.1
03:40 1024 30.24 853 25.19 -5.9 21.5 72 -10.1 13.8
03:45 1024 30.24 853 25.19 -6.8 19.7 76 -10.4 13.2
03:50 1024 30.24 853 25.19 -7 19.5 77 -10.4 13.2
03:55 1024 30.24 853 25.19 -7.9 17.8 80 -10.8 12.6
04:00 1024 30.24 853 25.19 -8 17.6 77 -11.3 11.7
04:05 1024 30.24 853 25.19 -7.2 19.1 73 -11.1 11.9
04:10 1024 30.24 853 25.19 -6.5 20.4 73 -10.6 12.9
04:15 1024 30.24 853 25.19 -6.4 20.4 72 -10.7 12.8
04:20 1024 30.24 853 25.19 -6.6 20.2 74 -10.5 13
04:25 1024 30.24 853 25.19 -6.5 20.4 74 -10.4 13.3
04:30 1024 30.24 853 25.19 -6.5 20.3 75 -10.3 13.5
04:35 1024 30.24 853 25.19 -6.9 19.6 77 -10.2 13.6
04:40 1024 30.24 853 25.19 -7.1 19.2 77 -10.5 13.2
04:45 1024 30.24 853 25.19 -6.9 19.6 75 -10.7 12.8
04:50 1024 30.24 853 25.19 -7 19.5 75 -10.7 12.8
04:55 1024 30.24 853 25.19 -6.8 19.8 75 -10.5 13.1
05:00 1024 30.24 853 25.19 -6.4 20.5 74 -10.3 13.4
05:05 1024 30.24 853 25.19 -5.8 21.5 71 -10.2 13.6
05:10 1024 30.24 853 25.19 -5.6 21.9 69 -10.4 13.3
05:15 1024 30.24 853 25.19 -5.4 22.2 70 -10.1 13.9
05:20 1024 30.24 853 25.19 -5.5 22.2 71 -10 14
05:25 1024 30.24 853 25.19 -6.3 20.6 74 -10.3 13.5
05:30 1024 30.24 853 25.19 -7 19.4 76 -10.6 12.9
05:35 1024 30.24 853 25.19 -7.3 19 76 -10.8 12.6
05:40 1024 30.24 853 25.19 -7 19.5 75 -10.7 12.7
05:45 1024 30.24 853 25.19 -7 19.4 75 -10.7 12.7
05:50 1024 30.24 853 25.19 -6.9 19.7 74 -10.8 12.6
05:55 1024 30.24 853 25.19 -7 19.3 76 -10.6 12.9
06:00 1024 30.24 853 25.19 -7.4 18.6 77 -10.8 12.6
06:05 1024 30.24 853 25.19 -7.5 18.6 77 -10.9 12.4
06:10 1024 30.24 853 25.19 -7.6 18.3 79 -10.7 12.7
06:15 1024 30.24 853 25.19 -7.3 18.8 78 -10.6 12.9
06:20 1024 30.24 853 25.19 -7.2 19 77 -10.5 13
06:25 1024 30.24 853 25.19 -7.4 18.7 78 -10.6 12.9
06:30 1024 30.24 853 25.19 -8 17.7 78 -11.2 11.9
06:35 1024 30.24 853 25.19 -8.2 17.3 78 -11.3 11.7
06:40 1024 30.24 853 25.19 -7.5 18.4 76 -11 12.2
06:45 1024 30.24 853 25.19 -7.5 18.5 77 -10.9 12.5
06:50 1024 30.24 853 25.19 -7.3 18.8 74 -11.2 11.9
06:55 1024 30.24 853 25.19 -6.7 19.9 72 -10.9 12.4
07:00 1024 30.24 854 25.22 -7.2 19 73 -11.2 11.8
07:05 1024 30.24 854 25.22 -7.4 18.7 78 -10.7 12.8
07:10 1024 30.24 854 25.22 -6.5 20.3 72 -10.7 12.8
07:15 1024 30.24 854 25.22 -6.2 20.9 72 -10.5 13.1
07:20 1025 30.27 854 25.22 -6.1 21 71 -10.5 13.1
07:25 1025 30.27 854 25.22 -6.3 20.7 72 -10.5 13
07:30 1025 30.27 854 25.22 -6.6 20.1 74 -10.6 13
07:35 1025 30.27 854 25.22 -6.9 19.6 75 -10.6 12.9
07:40 1025 30.27 854 25.22 -7.1 19.3 75 -10.8 12.6
07:45 1025 30.27 854 25.22 -6.4 20.6 72 -10.6 13
07:50 1025 30.27 854 25.22 -6.5 20.4 73 -10.6 12.9
07:55 1025 30.27 854 25.22 -6.5 20.3 73 -10.6 12.9
08:00 1025 30.27 854 25.22 -6.4 20.5 73 -10.5 13
08:05 1025 30.27 854 25.22 -6.4 20.5 73 -10.4 13.3
08:10 1025 30.27 854 25.22 -6.4 20.5 73 -10.5 13.2
08:15 1025 30.27 854 25.22 -6.1 21 72 -10.4 13.3
08:20 1025 30.27 854 25.22 -5.7 21.7 70 -10.3 13.4
08:25 1025 30.27 854 25.22 -5.8 21.6 71 -10.2 13.6
08:30 1025 30.27 854 25.22 -5.6 21.9 70 -10.2 13.6
08:35 1025 30.27 854 25.22 -5.3 22.4 69 -10.1 13.9
08:40 1025 30.27 854 25.22 -5.2 22.7 69 -10 14
08:45 1025 30.27 854 25.22 -5 22.9 68 -10 14
08:50 1025 30.27 854 25.22 -4.4 24.1 66 -9.7 14.5
08:55 1025 30.27 854 25.22 -4.4 24.1 69 -9.2 15.4
09:00 1025 30.27 854 25.22 -4.1 24.6 67 -9.4 15
09:05 1025 30.27 854 25.22 -3.9 25 66 -9.3 15.2
09:10 1025 30.27 854 25.22 -3.7 25.3 65 -9.4 15.1
09:15 1025 30.27 854 25.22 -3.1 26.4 63 -9.3 15.3
09:20 1025 30.27 854 25.22 -2.6 27.4 61 -9.1 15.6
09:25 1025 30.27 854 25.22 -2.4 27.7 60 -9.1 15.7
09:30 1025 30.27 854 25.22 -2.4 27.6 59 -9.5 14.9
09:35 1025 30.27 854 25.22 -1.9 28.6 56 -9.5 15
09:40 1025 30.27 854 25.22 -1.8 28.9 56 -9.4 15.1
09:45 1025 30.27 854 25.22 -1.1 30.1 57 -8.6 16.6
09:50 1025 30.27 854 25.22 -0.6 30.9 53 -9 15.8
09:55 1025 30.27 854 25.22 -0.1 31.8 51 -9 15.9
10:00 1025 30.27 854 25.22 0.2 32.3 50 -9 15.8
10:05 1025 30.27 854 25.22 0.5 33 49 -8.9 16
10:10 1025 30.27 854 25.22 0.7 33.2 47 -9.5 14.9
10:15 1025 30.27 854 25.22 0.3 32.6 51 -8.8 16.2
10:20 1025 30.27 854 25.22 1.2 34.1 48 -8.8 16.2
10:25 1025 30.27 854 25.22 1.1 33.9 48 -8.8 16.2
10:30 1025 30.27 854 25.22 0.5 32.9 48 -9.2 15.5
10:35 1025 30.27 854 25.22 1 33.9 50 -8.4 16.9
10:40 1025 30.27 854 25.22 1.5 34.7 50 -7.9 17.7
10:45 1025 30.27 854 25.22 1 33.8 52 -7.9 17.8
10:50 1025 30.27 854 25.22 0.8 33.4 54 -7.6 18.3
10:55 1025 30.27 854 25.22 1.3 34.4 51 -7.6 18.2
11:00 1025 30.27 854 25.22 1.7 35 49 -8 17.6
11:05 1025 30.27 854 25.22 2 35.6 50 -7.4 18.6
11:10 1025 30.27 854 25.22 2 35.7 51 -7.1 19.2
11:15 1025 30.27 854 25.22 1.5 34.7 50 -7.9 17.7
11:20 1025 30.27 854 25.22 1.9 35.4 52 -7 19.4
11:25 1025 30.27 854 25.22 2.1 35.8 51 -7.1 19.2
11:30 1025 30.27 854 25.22 2.3 36.1 51 -6.8 19.8
11:35 1024 30.24 854 25.22 2.1 35.8 50 -7.3 18.9
11:40 1024 30.24 854 25.22 1.7 35.1 51 -7.2 19
11:45 1024 30.24 854 25.22 1.8 35.2 54 -6.4 20.4
11:50 1024 30.24 853 25.19 2.2 36 51 -6.9 19.6
11:55 1024 30.24 853 25.19 2.7 36.8 51 -6.3 20.6
12:00 1024 30.24 853 25.19 2.4 36.3 52 -6.5 20.4
12:05 1024 30.24 853 25.19 2.6 36.6 49 -7.1 19.3
12:10 1024 30.24 853 25.19 1.6 34.8 56 -6.2 20.8
12:15 1023 30.21 853 25.19 1.3 34.4 55 -6.8 19.8
12:20 1023 30.21 852 25.16 1.2 34.1 50 -8.1 17.4
12:25 1023 30.21 852 25.16 1.2 34.1 47 -9 15.8
12:30 1023 30.21 852 25.16 2 35.6 47 -8.1 17.5
12:35 1023 30.21 852 25.16 2.5 36.4 44 -8.5 16.6
12:40 1023 30.21 852 25.16 3.4 38.1 39 -9.2 15.5
12:45 1023 30.21 852 25.16 4.3 39.8 39 -8.3 17.1
12:50 1023 30.21 852 25.16 3.8 38.8 38 -9.3 15.3
12:55 1023 30.21 852 25.16 3.3 37.9 37 -10.1 13.9
13:00 1023 30.21 852 25.16 3.1 37.6 39 -9.5 14.9
13:05 1023 30.21 852 25.16 3.4 38.1 33 -11.4 11.6
13:10 1023 30.21 852 25.16 3.5 38.3 36 -10.4 13.4
13:15 1023 30.21 852 25.16 3.1 37.5 37 -10.3 13.5
13:20 1023 30.21 852 25.16 3.4 38.1 38 -9.7 14.5
13:25 1023 30.21 852 25.16 3.9 38.9 42 -7.8 18
13:30 1023 30.21 852 25.16 4.6 40.2 39 -8.3 17
13:35 1023 30.21 852 25.16 4.2 39.6 41 -7.8 18
13:40 1023 30.21 852 25.16 4.3 39.7 44 -7.1 19.3
13:45 1023 30.21 852 25.16 4.8 40.7 40 -7.5 18.5
13:50 1023 30.21 852 25.16 5 41.1 43 -6.5 20.3
13:55 1023 30.21 852 25.16 5.4 41.7 42 -6.4 20.5
14:00 1023 30.21 852 25.16 5.4 41.8 44 -5.8 21.6
14:05 1023 30.21 852 25.16 4.9 40.8 46 -5.7 21.7
14:10 1023 30.21 852 25.16 4.2 39.5 49 -5.7 21.7
14:15 1023 30.21 852 25.16 2.4 36.3 56 -5.6 22
14:20 1023 30.21 852 25.16 2.7 36.9 52 -6.3 20.6
14:25 1023 30.21 852 25.16 2.9 37.2 52 -6 21.1
14:30 1023 30.21 852 25.16 1.7 35 54 -6.6 20.1
14:35 1023 30.21 852 25.16 2.1 35.8 52 -6.8 19.7
14:40 1023 30.21 852 25.16 2.6 36.7 50 -6.9 19.6
14:45 1023 30.21 852 25.16 2.6 36.6 50 -6.8 19.8
14:50 1022 30.18 852 25.16 3.2 37.7 49 -6.6 20.2
14:55 1022 30.18 852 25.16 4.1 39.4 47 -6.1 21
15:00 1022 30.18 852 25.16 4.7 40.5 45 -6.2 20.9
15:05 1022 30.18 852 25.16 4.6 40.3 49 -5.1 22.8
15:10 1022 30.18 852 25.16 3.6 38.5 52 -5.3 22.5
15:15 1022 30.18 852 25.16 4 39.2 51 -5.1 22.7
15:20 1022 30.18 851 25.13 3.9 39 50 -5.5 22.1
15:25 1022 30.18 851 25.13 4.1 39.4 51 -5.2 22.7
15:30 1022 30.18 851 25.13 3.8 38.9 53 -4.9 23.2
15:35 1022 30.18 851 25.13 3.2 37.8 51 -6 21.2
15:40 1022 30.18 851 25.13 3.5 38.4 51 -5.6 21.9
15:45 1022 30.18 851 25.13 3.8 38.8 50 -5.6 21.9
15:50 1022 30.18 851 25.13 3.8 38.9 49 -5.8 21.5
15:55 1022 30.18 851 25.13 4 39.1 49 -5.9 21.3
16:00 1022 30.18 851 25.13 3.9 39.1 49 -5.8 21.6
16:05 1022 30.18 851 25.13 3.9 39 49 -5.8 21.6
16:10 1022 30.18 851 25.13 3.4 38.2 49 -6.4 20.5
16:15 1022 30.18 851 25.13 3.3 37.9 50 -6.2 20.8
16:20 1022 30.18 851 25.13 3.1 37.6 49 -6.6 20.2
16:25 1022 30.18 851 25.13 3.1 37.5 43 -8.5 16.8
16:30 1022 30.18 851 25.13 2.5 36.5 54 -5.8 21.6
16:35 1022 30.18 851 25.13 1.9 35.3 56 -6 21.2
16:40 1022 30.18 851 25.13 1.7 35.1 52 -7 19.3
16:45 1022 30.18 851 25.13 2.1 35.7 52 -6.7 19.9
16:50 1022 30.18 851 25.13 2.3 36.1 52 -6.7 19.9
16:55 1022 30.18 851 25.13 1.7 35 46 -8.6 16.5
17:00 1022 30.18 851 25.13 1.3 34.3 49 -8.3 17
17:05 1022 30.18 851 25.13 1.3 34.4 50 -8 17.6
17:10 1022 30.18 851 25.13 1.1 34 55 -6.9 19.5
17:15 1022 30.18 851 25.13 1 33.7 58 -6.4 20.5
17:20 1022 30.18 851 25.13 1.1 34 58 -6.2 20.8
17:25 1022 30.18 851 25.13 1.1 34.1 57 -6.4 20.5
17:30 1022 30.18 851 25.13 1.2 34.1 60 -5.7 21.8
17:35 1022 30.18 851 25.13 1.2 34.2 63 -5 22.9
17:40 1022 30.18 851 25.13 1.1 34 66 -4.6 23.8
17:45 1022 30.18 851 25.13 0.8 33.5 65 -5 22.9
17:50 1022 30.18 851 25.13 0.6 33 65 -5.3 22.5
17:55 1022 30.18 851 25.13 0.4 32.8 66 -5.2 22.6
18:00 1022 30.18 851 25.13 0.1 32.2 68 -5.2 22.7
18:05 1022 30.18 852 25.16 -0.3 31.5 70 -5.1 22.7
18:10 1022 30.18 852 25.16 -0.6 30.9 74 -4.6 23.6
18:15 1022 30.18 852 25.16 -1.3 29.6 80 -4.4 24
18:20 1022 30.18 852 25.16 -1.5 29.4 78 -4.9 23.2
18:25 1022 30.18 852 25.16 -1.2 29.8 78 -4.6 23.7
18:30 1022 30.18 852 25.16 -1.4 29.4 78 -4.9 23.2
18:35 1022 30.18 852 25.16 -1 30.2 73 -5.2 22.6
18:40 1022 30.18 851 25.13 -1.2 29.8 72 -5.6 21.9
18:45 1022 30.18 851 25.13 -1.4 29.5 74 -5.4 22.2
18:50 1022 30.18 851 25.13 -1.5 29.3 74 -5.5 22.1
18:55 1022 30.18 851 25.13 -1.4 29.5 74 -5.5 22
19:00 1022 30.18 851 25.13 -1.1 30 70 -5.8 21.6
19:05 1022 30.18 851 25.13 -0.5 31 70 -5.4 22.3
19:10 1022 30.18 851 25.13 -0.1 31.9 69 -5 23
19:15 1022 30.18 851 25.13 0.3 32.6 68 -4.9 23.2
19:20 1022 30.18 851 25.13 0.5 32.8 67 -4.9 23.2
19:25 1022 30.18 851 25.13 -0 31.9 72 -4.6 23.8
19:30 1022 30.18 851 25.13 -0.5 31 73 -4.8 23.4
19:35 1022 30.18 851 25.13 -1 30.2 76 -4.7 23.5
19:40 1022 30.18 851 25.13 -1.1 30 79 -4.4 24.2
19:45 1022 30.18 852 25.16 -0.6 31 76 -4.3 24.3
19:50 1022 30.18 852 25.16 -0.9 30.3 79 -4 24.7
19:55 1022 30.18 852 25.16 -1.2 29.9 79 -4.3 24.3
20:00 1022 30.18 852 25.16 -0.2 31.6 70 -5 22.9
20:05 1022 30.18 852 25.16 0.3 32.5 71 -4.4 24.1
20:10 1022 30.18 852 25.16 -0.3 31.4 76 -4.1 24.6
20:15 1022 30.18 851 25.13 -0.8 30.5 82 -3.5 25.7
20:20 1022 30.18 852 25.16 -1.7 29 85 -3.9 25
20:25 1022 30.18 852 25.16 -1.8 28.8 81 -4.6 23.7
20:30 1022 30.18 852 25.16 -0.7 30.7 75 -4.5 23.8
20:35 1022 30.18 852 25.16 -0.3 31.4 76 -4.1 24.6
20:40 1022 30.18 852 25.16 -0.6 31 79 -3.8 25.2
20:45 1022 30.18 852 25.16 -0.8 30.5 81 -3.6 25.5
20:50 1022 30.18 852 25.16 -1.2 29.8 83 -3.7 25.3
20:55 1022 30.18 852 25.16 -1.3 29.7 84 -3.7 25.4
21:00 1022 30.18 852 25.16 -1 30.1 83 -3.6 25.5
21:05 1022 30.18 852 25.16 -1 30.3 83 -3.5 25.7
21:10 1022 30.18 852 25.16 -0.6 30.9 76 -4.4 24.2
21:15 1022 30.18 852 25.16 -0.9 30.3 77 -4.4 24
21:20 1022 30.18 852 25.16 -1.2 29.9 78 -4.6 23.7
21:25 1023 30.21 852 25.16 -0.8 30.5 76 -4.5 23.9
21:30 1022 30.18 852 25.16 -0.5 31 76 -4.2 24.4
21:35 1023 30.21 852 25.16 -0.3 31.4 76 -4.1 24.6
21:40 1023 30.21 852 25.16 -0.2 31.6 76 -3.9 24.9
21:45 1023 30.21 852 25.16 -0.1 31.8 76 -3.9 25
21:50 1023 30.21 852 25.16 -0.1 31.9 75 -4 24.8
21:55 1023 30.21 852 25.16 -0.2 31.7 75 -4 24.8
22:00 1023 30.21 852 25.16 -0.6 30.9 77 -4.1 24.6
22:05 1023 30.21 852 25.16 -0.9 30.4 78 -4.2 24.4
22:10 1023 30.21 852 25.16 -0.8 30.6 77 -4.4 24.1
22:15 1023 30.21 852 25.16 -0.1 31.9 69 -5.2 22.7
22:20 1023 30.21 852 25.16 0.5 32.9 68 -4.7 23.5
22:25 1023 30.21 852 25.16 0.8 33.4 66 -4.9 23.2
22:30 1023 30.21 852 25.16 0.7 33.2 70 -4.2 24.5
22:35 1023 30.21 852 25.16 0.3 32.6 71 -4.3 24.3
22:40 1023 30.21 852 25.16 0.4 32.7 71 -4.2 24.4
22:45 1022 30.18 852 25.16 0.7 33.3 71 -4 24.7
22:50 1023 30.21 852 25.16 0.6 33.1 72 -3.9 25.1
22:55 1022 30.18 852 25.16 0.2 32.4 76 -3.6 25.6
23:00 1022 30.18 852 25.16 -0.1 31.8 77 -3.7 25.4
23:05 1022 30.18 852 25.16 -0.5 31.1 78 -3.9 25
23:10 1022 30.18 852 25.16 -0.8 30.6 79 -3.9 24.9
23:15 1022 30.18 852 25.16 -1.2 29.9 82 -3.9 25
23:20 1022 30.18 852 25.16 -0.7 30.8 77 -4.3 24.3
23:25 1022 30.18 852 25.16 -0.3 31.4 74 -4.3 24.2
23:30 1022 30.18 852 25.16 -0.2 31.6 74 -4.3 24.3
23:35 1022 30.18 852 25.16 -0.5 31.1 76 -4.2 24.5
23:40 1022 30.18 852 25.16 -0.7 30.8 76 -4.3 24.2
23:45 1022 30.18 852 25.16 -0.5 31.1 77 -4.1 24.6
23:50 1022 30.18 852 25.16 -0.4 31.3 76 -4.1 24.6
23:55 1022 30.18 852 25.16 -0.5 31.2 75 -4.3 24.2
24:00 1022 30.18 851 25.13 -0.2 31.7 72 -4.6 23.7